sensor_id;sensor_type;location;lat;lon;timestamp;P1;durP1;ratioP1;P2;durP2;ratioP2
24650;SDS011;12783;48.824;8.662;2023-05-23T00:01:40;45.95;;;26.65;;
24650;SDS011;12783;48.824;8.662;2023-05-23T00:04:08;45.22;;;25.35;;
24650;SDS011;12783;48.824;8.662;2023-05-23T00:06:36;45.38;;;26.23;;
24650;SDS011;12783;48.824;8.662;2023-05-23T00:09:04;42.00;;;25.05;;
24650;SDS011;12783;48.824;8.662;2023-05-23T00:11:31;47.83;;;26.20;;
24650;SDS011;12783;48.824;8.662;2023-05-23T00:13:58;51.25;;;28.27;;
24650;SDS011;12783;48.824;8.662;2023-05-23T00:16:26;49.28;;;27.80;;
24650;SDS011;12783;48.824;8.662;2023-05-23T00:18:53;46.97;;;28.67;;
24650;SDS011;12783;48.824;8.662;2023-05-23T00:21:22;48.65;;;27.55;;
24650;SDS011;12783;48.824;8.662;2023-05-23T00:23:49;51.20;;;28.67;;
24650;SDS011;12783;48.824;8.662;2023-05-23T00:26:16;52.80;;;28.83;;
24650;SDS011;12783;48.824;8.662;2023-05-23T00:28:43;61.90;;;32.47;;
24650;SDS011;12783;48.824;8.662;2023-05-23T00:31:10;66.43;;;34.33;;
24650;SDS011;12783;48.824;8.662;2023-05-23T00:33:37;76.97;;;38.78;;
24650;SDS011;12783;48.824;8.662;2023-05-23T00:36:04;83.10;;;40.83;;
24650;SDS011;12783;48.824;8.662;2023-05-23T00:38:31;100.38;;;45.67;;
24650;SDS011;12783;48.824;8.662;2023-05-23T00:40:58;93.88;;;45.47;;
24650;SDS011;12783;48.824;8.662;2023-05-23T00:43:26;99.85;;;47.25;;
24650;SDS011;12783;48.824;8.662;2023-05-23T00:45:53;99.85;;;47.08;;
24650;SDS011;12783;48.824;8.662;2023-05-23T00:48:20;102.72;;;47.08;;
24650;SDS011;12783;48.824;8.662;2023-05-23T00:50:46;119.00;;;53.88;;
24650;SDS011;12783;48.824;8.662;2023-05-23T00:53:13;104.13;;;49.42;;
24650;SDS011;12783;48.824;8.662;2023-05-23T00:55:43;109.97;;;50.72;;
24650;SDS011;12783;48.824;8.662;2023-05-23T00:58:10;120.07;;;52.85;;
24650;SDS011;12783;48.824;8.662;2023-05-23T01:00:40;104.15;;;49.83;;
24650;SDS011;12783;48.824;8.662;2023-05-23T01:03:10;110.32;;;51.20;;
24650;SDS011;12783;48.824;8.662;2023-05-23T01:05:43;106.05;;;49.80;;
24650;SDS011;12783;48.824;8.662;2023-05-23T01:08:10;102.78;;;47.92;;
24650;SDS011;12783;48.824;8.662;2023-05-23T01:10:37;111.60;;;52.22;;
24650;SDS011;12783;48.824;8.662;2023-05-23T01:16:01;111.68;;;50.38;;
24650;SDS011;12783;48.824;8.662;2023-05-23T01:18:37;105.35;;;49.28;;
24650;SDS011;12783;48.824;8.662;2023-05-23T01:21:16;103.82;;;47.88;;
24650;SDS011;12783;48.824;8.662;2023-05-23T01:26:55;109.93;;;51.28;;
24650;SDS011;12783;48.824;8.662;2023-05-23T01:29:45;104.55;;;51.05;;
24650;SDS011;12783;48.824;8.662;2023-05-23T01:32:15;111.25;;;52.00;;
24650;SDS011;12783;48.824;8.662;2023-05-23T01:34:44;113.50;;;53.10;;
24650;SDS011;12783;48.824;8.662;2023-05-23T01:37:12;95.50;;;47.45;;
24650;SDS011;12783;48.824;8.662;2023-05-23T01:39:44;95.75;;;48.65;;
24650;SDS011;12783;48.824;8.662;2023-05-23T01:42:11;113.72;;;52.88;;
24650;SDS011;12783;48.824;8.662;2023-05-23T01:44:38;105.95;;;49.15;;
24650;SDS011;12783;48.824;8.662;2023-05-23T01:47:07;96.95;;;47.60;;
24650;SDS011;12783;48.824;8.662;2023-05-23T01:49:36;103.88;;;50.17;;
24650;SDS011;12783;48.824;8.662;2023-05-23T01:52:04;102.10;;;50.85;;
24650;SDS011;12783;48.824;8.662;2023-05-23T01:54:36;107.30;;;51.85;;
24650;SDS011;12783;48.824;8.662;2023-05-23T01:57:04;114.63;;;50.70;;
24650;SDS011;12783;48.824;8.662;2023-05-23T01:59:32;104.32;;;50.03;;
24650;SDS011;12783;48.824;8.662;2023-05-23T02:01:59;108.13;;;50.78;;
24650;SDS011;12783;48.824;8.662;2023-05-23T02:04:29;105.22;;;50.78;;
24650;SDS011;12783;48.824;8.662;2023-05-23T02:06:56;99.35;;;47.28;;
24650;SDS011;12783;48.824;8.662;2023-05-23T02:09:23;112.10;;;52.55;;
24650;SDS011;12783;48.824;8.662;2023-05-23T02:11:50;100.43;;;49.17;;
24650;SDS011;12783;48.824;8.662;2023-05-23T02:14:17;104.32;;;48.08;;
24650;SDS011;12783;48.824;8.662;2023-05-23T02:16:44;110.03;;;52.13;;
24650;SDS011;12783;48.824;8.662;2023-05-23T02:19:11;110.13;;;52.53;;
24650;SDS011;12783;48.824;8.662;2023-05-23T02:21:38;104.35;;;48.47;;
24650;SDS011;12783;48.824;8.662;2023-05-23T02:24:05;103.50;;;50.63;;
24650;SDS011;12783;48.824;8.662;2023-05-23T02:26:32;93.38;;;51.08;;
24650;SDS011;12783;48.824;8.662;2023-05-23T02:28:59;102.18;;;49.75;;
24650;SDS011;12783;48.824;8.662;2023-05-23T02:31:26;102.22;;;48.33;;
24650;SDS011;12783;48.824;8.662;2023-05-23T02:33:53;93.78;;;48.65;;
24650;SDS011;12783;48.824;8.662;2023-05-23T02:36:20;97.90;;;48.38;;
24650;SDS011;12783;48.824;8.662;2023-05-23T02:38:47;93.28;;;47.08;;
24650;SDS011;12783;48.824;8.662;2023-05-23T02:41:14;92.20;;;46.95;;
24650;SDS011;12783;48.824;8.662;2023-05-23T02:43:41;92.10;;;47.53;;
24650;SDS011;12783;48.824;8.662;2023-05-23T02:46:12;88.20;;;45.85;;
24650;SDS011;12783;48.824;8.662;2023-05-23T02:48:39;89.05;;;47.10;;
24650;SDS011;12783;48.824;8.662;2023-05-23T02:51:06;89.57;;;44.97;;
24650;SDS011;12783;48.824;8.662;2023-05-23T02:53:33;84.15;;;44.78;;
24650;SDS011;12783;48.824;8.662;2023-05-23T02:55:59;85.18;;;46.03;;
24650;SDS011;12783;48.824;8.662;2023-05-23T02:58:27;89.07;;;43.58;;
24650;SDS011;12783;48.824;8.662;2023-05-23T03:00:55;82.07;;;44.67;;
24650;SDS011;12783;48.824;8.662;2023-05-23T03:03:22;89.72;;;46.28;;
24650;SDS011;12783;48.824;8.662;2023-05-23T03:05:49;83.05;;;46.28;;
24650;SDS011;12783;48.824;8.662;2023-05-23T03:08:16;85.13;;;44.25;;
24650;SDS011;12783;48.824;8.662;2023-05-23T03:10:44;81.45;;;44.00;;
24650;SDS011;12783;48.824;8.662;2023-05-23T03:13:12;86.80;;;43.97;;
24650;SDS011;12783;48.824;8.662;2023-05-23T03:15:39;76.32;;;43.40;;
24650;SDS011;12783;48.824;8.662;2023-05-23T03:18:06;84.88;;;45.15;;
24650;SDS011;12783;48.824;8.662;2023-05-23T03:20:33;88.93;;;46.33;;
24650;SDS011;12783;48.824;8.662;2023-05-23T03:23:00;93.47;;;49.10;;
24650;SDS011;12783;48.824;8.662;2023-05-23T03:25:28;87.50;;;47.53;;
24650;SDS011;12783;48.824;8.662;2023-05-23T03:27:54;91.53;;;46.92;;
24650;SDS011;12783;48.824;8.662;2023-05-23T03:30:22;109.22;;;48.65;;
24650;SDS011;12783;48.824;8.662;2023-05-23T03:32:49;94.43;;;46.95;;
24650;SDS011;12783;48.824;8.662;2023-05-23T03:35:16;86.93;;;44.40;;
24650;SDS011;12783;48.824;8.662;2023-05-23T03:37:43;103.90;;;49.05;;
24650;SDS011;12783;48.824;8.662;2023-05-23T03:40:10;95.50;;;49.05;;
24650;SDS011;12783;48.824;8.662;2023-05-23T03:42:37;91.75;;;51.20;;
24650;SDS011;12783;48.824;8.662;2023-05-23T03:45:05;95.57;;;48.95;;
24650;SDS011;12783;48.824;8.662;2023-05-23T03:47:32;86.47;;;46.03;;
24650;SDS011;12783;48.824;8.662;2023-05-23T03:49:59;88.13;;;46.58;;
24650;SDS011;12783;48.824;8.662;2023-05-23T03:52:26;92.50;;;49.80;;
24650;SDS011;12783;48.824;8.662;2023-05-23T03:54:53;94.28;;;50.97;;
24650;SDS011;12783;48.824;8.662;2023-05-23T03:57:20;92.30;;;50.58;;
24650;SDS011;12783;48.824;8.662;2023-05-23T03:59:48;82.30;;;49.20;;
24650;SDS011;12783;48.824;8.662;2023-05-23T04:02:15;89.60;;;49.40;;
24650;SDS011;12783;48.824;8.662;2023-05-23T04:04:42;94.53;;;48.50;;
24650;SDS011;12783;48.824;8.662;2023-05-23T04:07:09;90.53;;;52.30;;
24650;SDS011;12783;48.824;8.662;2023-05-23T04:09:36;106.00;;;55.40;;
24650;SDS011;12783;48.824;8.662;2023-05-23T04:12:03;88.60;;;52.38;;
24650;SDS011;12783;48.824;8.662;2023-05-23T04:14:31;92.07;;;51.35;;
24650;SDS011;12783;48.824;8.662;2023-05-23T04:16:58;90.75;;;50.97;;
24650;SDS011;12783;48.824;8.662;2023-05-23T04:19:26;102.03;;;56.08;;
24650;SDS011;12783;48.824;8.662;2023-05-23T04:21:53;99.20;;;52.72;;
24650;SDS011;12783;48.824;8.662;2023-05-23T04:24:20;103.95;;;54.67;;
24650;SDS011;12783;48.824;8.662;2023-05-23T04:26:47;89.72;;;50.75;;
24650;SDS011;12783;48.824;8.662;2023-05-23T04:29:15;88.55;;;50.65;;
24650;SDS011;12783;48.824;8.662;2023-05-23T04:31:42;96.03;;;50.35;;
24650;SDS011;12783;48.824;8.662;2023-05-23T04:34:11;99.72;;;53.13;;
24650;SDS011;12783;48.824;8.662;2023-05-23T04:36:38;93.53;;;51.78;;
24650;SDS011;12783;48.824;8.662;2023-05-23T04:39:05;92.45;;;51.67;;
24650;SDS011;12783;48.824;8.662;2023-05-23T04:41:32;99.40;;;53.65;;
24650;SDS011;12783;48.824;8.662;2023-05-23T04:43:59;95.88;;;53.78;;
24650;SDS011;12783;48.824;8.662;2023-05-23T04:46:26;98.38;;;52.53;;
24650;SDS011;12783;48.824;8.662;2023-05-23T04:48:53;87.00;;;48.83;;
24650;SDS011;12783;48.824;8.662;2023-05-23T04:51:24;94.07;;;51.20;;
24650;SDS011;12783;48.824;8.662;2023-05-23T04:53:51;90.22;;;51.03;;
24650;SDS011;12783;48.824;8.662;2023-05-23T04:56:18;100.63;;;54.67;;
24650;SDS011;12783;48.824;8.662;2023-05-23T04:58:48;99.75;;;52.95;;
24650;SDS011;12783;48.824;8.662;2023-05-23T05:01:15;96.43;;;51.65;;
24650;SDS011;12783;48.824;8.662;2023-05-23T05:03:42;94.43;;;52.55;;
24650;SDS011;12783;48.824;8.662;2023-05-23T05:06:09;97.28;;;52.40;;
24650;SDS011;12783;48.824;8.662;2023-05-23T05:08:36;104.07;;;51.08;;
24650;SDS011;12783;48.824;8.662;2023-05-23T05:11:03;100.07;;;52.78;;
24650;SDS011;12783;48.824;8.662;2023-05-23T05:13:30;97.10;;;51.15;;
24650;SDS011;12783;48.824;8.662;2023-05-23T05:15:57;88.03;;;48.45;;
24650;SDS011;12783;48.824;8.662;2023-05-23T05:18:27;88.57;;;50.17;;
24650;SDS011;12783;48.824;8.662;2023-05-23T05:20:56;94.00;;;51.65;;
24650;SDS011;12783;48.824;8.662;2023-05-23T05:23:24;86.35;;;49.55;;
24650;SDS011;12783;48.824;8.662;2023-05-23T05:25:54;81.07;;;48.45;;
24650;SDS011;12783;48.824;8.662;2023-05-23T05:28:22;88.55;;;50.13;;
24650;SDS011;12783;48.824;8.662;2023-05-23T05:30:49;79.78;;;47.20;;
24650;SDS011;12783;48.824;8.662;2023-05-23T05:33:20;90.72;;;49.38;;
24650;SDS011;12783;48.824;8.662;2023-05-23T05:35:50;86.03;;;49.90;;
24650;SDS011;12783;48.824;8.662;2023-05-23T05:38:17;88.45;;;48.92;;
24650;SDS011;12783;48.824;8.662;2023-05-23T05:40:45;84.57;;;47.75;;
24650;SDS011;12783;48.824;8.662;2023-05-23T05:43:12;83.05;;;49.15;;
24650;SDS011;12783;48.824;8.662;2023-05-23T05:45:38;74.35;;;45.55;;
24650;SDS011;12783;48.824;8.662;2023-05-23T05:48:06;82.63;;;46.25;;
24650;SDS011;12783;48.824;8.662;2023-05-23T05:50:33;66.85;;;41.50;;
24650;SDS011;12783;48.824;8.662;2023-05-23T05:53:00;71.38;;;44.30;;
24650;SDS011;12783;48.824;8.662;2023-05-23T05:55:27;69.72;;;43.88;;
24650;SDS011;12783;48.824;8.662;2023-05-23T05:57:54;70.63;;;43.97;;
24650;SDS011;12783;48.824;8.662;2023-05-23T06:00:22;70.68;;;43.30;;
24650;SDS011;12783;48.824;8.662;2023-05-23T06:02:49;67.85;;;42.08;;
24650;SDS011;12783;48.824;8.662;2023-05-23T06:05:23;74.13;;;44.53;;
24650;SDS011;12783;48.824;8.662;2023-05-23T06:07:50;71.07;;;41.88;;
24650;SDS011;12783;48.824;8.662;2023-05-23T06:10:18;71.47;;;43.75;;
24650;SDS011;12783;48.824;8.662;2023-05-23T06:12:44;74.35;;;43.20;;
24650;SDS011;12783;48.824;8.662;2023-05-23T06:15:11;72.15;;;42.83;;
24650;SDS011;12783;48.824;8.662;2023-05-23T06:17:40;68.68;;;40.55;;
24650;SDS011;12783;48.824;8.662;2023-05-23T06:20:07;59.15;;;39.25;;
24650;SDS011;12783;48.824;8.662;2023-05-23T06:22:35;61.55;;;38.63;;
24650;SDS011;12783;48.824;8.662;2023-05-23T06:25:02;61.65;;;39.63;;
24650;SDS011;12783;48.824;8.662;2023-05-23T06:27:30;62.53;;;40.10;;
24650;SDS011;12783;48.824;8.662;2023-05-23T06:29:57;64.28;;;37.05;;
24650;SDS011;12783;48.824;8.662;2023-05-23T06:32:24;59.97;;;39.53;;
24650;SDS011;12783;48.824;8.662;2023-05-23T06:34:51;59.10;;;38.03;;
24650;SDS011;12783;48.824;8.662;2023-05-23T06:37:18;60.10;;;40.40;;
24650;SDS011;12783;48.824;8.662;2023-05-23T06:39:45;59.17;;;39.10;;
24650;SDS011;12783;48.824;8.662;2023-05-23T06:42:11;61.42;;;38.78;;
24650;SDS011;12783;48.824;8.662;2023-05-23T06:44:39;63.03;;;38.58;;
24650;SDS011;12783;48.824;8.662;2023-05-23T06:47:06;59.67;;;38.00;;
24650;SDS011;12783;48.824;8.662;2023-05-23T06:49:33;56.03;;;35.92;;
24650;SDS011;12783;48.824;8.662;2023-05-23T06:51:59;55.63;;;34.92;;
24650;SDS011;12783;48.824;8.662;2023-05-23T06:54:26;58.10;;;36.58;;
24650;SDS011;12783;48.824;8.662;2023-05-23T06:56:53;53.10;;;35.22;;
24650;SDS011;12783;48.824;8.662;2023-05-23T06:59:20;54.38;;;35.20;;
24650;SDS011;12783;48.824;8.662;2023-05-23T07:01:47;50.92;;;33.33;;
24650;SDS011;12783;48.824;8.662;2023-05-23T07:04:14;54.75;;;32.75;;
24650;SDS011;12783;48.824;8.662;2023-05-23T07:06:41;53.13;;;33.42;;
24650;SDS011;12783;48.824;8.662;2023-05-23T07:09:08;52.70;;;33.78;;
24650;SDS011;12783;48.824;8.662;2023-05-23T07:11:37;57.65;;;33.22;;
24650;SDS011;12783;48.824;8.662;2023-05-23T07:14:06;49.47;;;30.85;;
24650;SDS011;12783;48.824;8.662;2023-05-23T07:16:33;51.90;;;33.60;;
24650;SDS011;12783;48.824;8.662;2023-05-23T07:19:00;51.63;;;34.25;;
24650;SDS011;12783;48.824;8.662;2023-05-23T07:21:28;47.35;;;30.85;;
24650;SDS011;12783;48.824;8.662;2023-05-23T07:23:55;46.17;;;30.33;;
24650;SDS011;12783;48.824;8.662;2023-05-23T07:26:22;45.45;;;30.23;;
24650;SDS011;12783;48.824;8.662;2023-05-23T07:28:49;46.30;;;29.90;;
24650;SDS011;12783;48.824;8.662;2023-05-23T07:31:16;44.30;;;28.85;;
24650;SDS011;12783;48.824;8.662;2023-05-23T07:33:43;48.33;;;27.35;;
24650;SDS011;12783;48.824;8.662;2023-05-23T07:36:10;39.63;;;26.98;;
24650;SDS011;12783;48.824;8.662;2023-05-23T07:38:37;39.70;;;25.60;;
24650;SDS011;12783;48.824;8.662;2023-05-23T07:41:04;44.72;;;26.75;;
24650;SDS011;12783;48.824;8.662;2023-05-23T07:43:37;41.53;;;26.90;;
24650;SDS011;12783;48.824;8.662;2023-05-23T07:46:05;39.22;;;27.25;;
24650;SDS011;12783;48.824;8.662;2023-05-23T07:48:33;41.25;;;26.98;;
24650;SDS011;12783;48.824;8.662;2023-05-23T07:51:00;34.70;;;25.30;;
24650;SDS011;12783;48.824;8.662;2023-05-23T07:53:26;38.72;;;25.60;;
24650;SDS011;12783;48.824;8.662;2023-05-23T07:55:53;43.13;;;26.88;;
24650;SDS011;12783;48.824;8.662;2023-05-23T07:58:22;40.42;;;25.05;;
24650;SDS011;12783;48.824;8.662;2023-05-23T08:00:48;40.15;;;25.02;;
24650;SDS011;12783;48.824;8.662;2023-05-23T08:03:18;38.40;;;25.10;;
24650;SDS011;12783;48.824;8.662;2023-05-23T08:05:46;36.65;;;24.17;;
24650;SDS011;12783;48.824;8.662;2023-05-23T08:08:13;36.20;;;25.80;;
24650;SDS011;12783;48.824;8.662;2023-05-23T08:10:40;37.35;;;25.10;;
24650;SDS011;12783;48.824;8.662;2023-05-23T08:13:09;41.33;;;25.98;;
24650;SDS011;12783;48.824;8.662;2023-05-23T08:15:37;42.28;;;25.08;;
24650;SDS011;12783;48.824;8.662;2023-05-23T08:18:03;39.53;;;26.17;;
24650;SDS011;12783;48.824;8.662;2023-05-23T08:20:31;38.95;;;25.05;;
24650;SDS011;12783;48.824;8.662;2023-05-23T08:22:58;39.22;;;24.63;;
24650;SDS011;12783;48.824;8.662;2023-05-23T08:25:27;48.80;;;26.25;;
24650;SDS011;12783;48.824;8.662;2023-05-23T08:27:58;40.28;;;25.42;;
24650;SDS011;12783;48.824;8.662;2023-05-23T08:30:27;35.72;;;24.60;;
24650;SDS011;12783;48.824;8.662;2023-05-23T08:32:54;34.95;;;23.52;;
24650;SDS011;12783;48.824;8.662;2023-05-23T08:35:22;33.60;;;22.58;;
24650;SDS011;12783;48.824;8.662;2023-05-23T08:37:50;33.03;;;24.00;;
24650;SDS011;12783;48.824;8.662;2023-05-23T08:40:18;39.15;;;24.45;;
24650;SDS011;12783;48.824;8.662;2023-05-23T08:42:48;35.55;;;23.67;;
24650;SDS011;12783;48.824;8.662;2023-05-23T08:45:16;35.75;;;23.13;;
24650;SDS011;12783;48.824;8.662;2023-05-23T08:47:45;34.83;;;22.00;;
24650;SDS011;12783;48.824;8.662;2023-05-23T08:50:13;32.13;;;22.65;;
24650;SDS011;12783;48.824;8.662;2023-05-23T08:52:57;30.77;;;22.13;;
24650;SDS011;12783;48.824;8.662;2023-05-23T08:55:28;32.55;;;22.67;;
24650;SDS011;12783;48.824;8.662;2023-05-23T08:57:56;33.67;;;22.63;;
24650;SDS011;12783;48.824;8.662;2023-05-23T09:00:28;35.33;;;22.67;;
24650;SDS011;12783;48.824;8.662;2023-05-23T09:02:56;33.20;;;20.65;;
24650;SDS011;12783;48.824;8.662;2023-05-23T09:05:23;29.52;;;20.27;;
24650;SDS011;12783;48.824;8.662;2023-05-23T09:07:52;34.38;;;21.73;;
24650;SDS011;12783;48.824;8.662;2023-05-23T09:10:20;29.60;;;20.90;;
24650;SDS011;12783;48.824;8.662;2023-05-23T09:12:48;33.90;;;20.25;;
24650;SDS011;12783;48.824;8.662;2023-05-23T09:15:15;28.38;;;20.10;;
24650;SDS011;12783;48.824;8.662;2023-05-23T09:17:43;28.52;;;19.48;;
24650;SDS011;12783;48.824;8.662;2023-05-23T09:20:11;30.20;;;18.40;;
24650;SDS011;12783;48.824;8.662;2023-05-23T09:22:45;25.52;;;18.75;;
24650;SDS011;12783;48.824;8.662;2023-05-23T09:25:14;31.40;;;21.83;;
24650;SDS011;12783;48.824;8.662;2023-05-23T09:27:41;28.75;;;19.67;;
24650;SDS011;12783;48.824;8.662;2023-05-23T09:30:13;28.50;;;18.38;;
24650;SDS011;12783;48.824;8.662;2023-05-23T09:32:40;25.77;;;17.33;;
24650;SDS011;12783;48.824;8.662;2023-05-23T09:35:07;31.17;;;18.83;;
24650;SDS011;12783;48.824;8.662;2023-05-23T09:37:42;27.20;;;17.92;;
24650;SDS011;12783;48.824;8.662;2023-05-23T09:40:12;25.55;;;18.92;;
24650;SDS011;12783;48.824;8.662;2023-05-23T09:42:41;28.48;;;19.33;;
24650;SDS011;12783;48.824;8.662;2023-05-23T09:45:12;37.38;;;20.23;;
24650;SDS011;12783;48.824;8.662;2023-05-23T09:47:48;45.45;;;19.90;;
24650;SDS011;12783;48.824;8.662;2023-05-23T09:50:19;38.05;;;19.20;;
24650;SDS011;12783;48.824;8.662;2023-05-23T09:52:48;28.67;;;19.10;;
24650;SDS011;12783;48.824;8.662;2023-05-23T09:55:16;28.30;;;18.85;;
24650;SDS011;12783;48.824;8.662;2023-05-23T09:57:43;26.38;;;18.88;;
24650;SDS011;12783;48.824;8.662;2023-05-23T10:00:15;27.23;;;18.42;;
24650;SDS011;12783;48.824;8.662;2023-05-23T10:02:53;38.50;;;17.23;;
24650;SDS011;12783;48.824;8.662;2023-05-23T10:05:39;28.15;;;17.77;;
24650;SDS011;12783;48.824;8.662;2023-05-23T10:08:09;25.05;;;17.38;;
24650;SDS011;12783;48.824;8.662;2023-05-23T10:13:45;22.83;;;16.23;;
24650;SDS011;12783;48.824;8.662;2023-05-23T10:16:19;20.90;;;15.45;;
24650;SDS011;12783;48.824;8.662;2023-05-23T10:18:57;23.27;;;16.58;;
24650;SDS011;12783;48.824;8.662;2023-05-23T10:21:35;22.02;;;15.57;;
24650;SDS011;12783;48.824;8.662;2023-05-23T10:24:13;21.58;;;15.63;;
24650;SDS011;12783;48.824;8.662;2023-05-23T10:26:40;20.85;;;14.85;;
24650;SDS011;12783;48.824;8.662;2023-05-23T10:29:10;20.50;;;15.55;;
24650;SDS011;12783;48.824;8.662;2023-05-23T10:31:37;25.45;;;15.27;;
24650;SDS011;12783;48.824;8.662;2023-05-23T10:34:14;21.33;;;16.20;;
24650;SDS011;12783;48.824;8.662;2023-05-23T10:37:01;21.92;;;14.73;;
24650;SDS011;12783;48.824;8.662;2023-05-23T10:39:45;20.98;;;15.95;;
24650;SDS011;12783;48.824;8.662;2023-05-23T10:45:31;21.85;;;14.48;;
24650;SDS011;12783;48.824;8.662;2023-05-23T10:51:08;18.13;;;13.63;;
24650;SDS011;12783;48.824;8.662;2023-05-23T10:53:41;19.00;;;13.85;;
24650;SDS011;12783;48.824;8.662;2023-05-23T10:56:19;20.25;;;14.38;;
24650;SDS011;12783;48.824;8.662;2023-05-23T10:58:54;18.38;;;13.18;;
24650;SDS011;12783;48.824;8.662;2023-05-23T11:01:23;16.27;;;12.38;;
24650;SDS011;12783;48.824;8.662;2023-05-23T11:03:53;21.65;;;12.90;;
24650;SDS011;12783;48.824;8.662;2023-05-23T11:17:17;17.45;;;10.15;;
24650;SDS011;12783;48.824;8.662;2023-05-23T11:20:02;11.52;;;9.30;;
24650;SDS011;12783;48.824;8.662;2023-05-23T11:22:34;10.52;;;8.85;;
24650;SDS011;12783;48.824;8.662;2023-05-23T11:25:06;10.38;;;8.25;;
24650;SDS011;12783;48.824;8.662;2023-05-23T11:27:36;10.20;;;7.88;;
24650;SDS011;12783;48.824;8.662;2023-05-23T11:32:33;12.73;;;7.78;;
24650;SDS011;12783;48.824;8.662;2023-05-23T11:35:02;9.82;;;7.68;;
24650;SDS011;12783;48.824;8.662;2023-05-23T11:37:34;8.50;;;6.65;;
24650;SDS011;12783;48.824;8.662;2023-05-23T11:42:55;9.43;;;6.55;;
24650;SDS011;12783;48.824;8.662;2023-05-23T11:45:22;6.90;;;5.80;;
24650;SDS011;12783;48.824;8.662;2023-05-23T11:47:49;8.95;;;6.82;;
24650;SDS011;12783;48.824;8.662;2023-05-23T11:50:17;9.73;;;6.30;;
24650;SDS011;12783;48.824;8.662;2023-05-23T11:52:46;7.57;;;6.15;;
24650;SDS011;12783;48.824;8.662;2023-05-23T11:55:20;14.68;;;6.57;;
24650;SDS011;12783;48.824;8.662;2023-05-23T11:57:48;11.75;;;6.53;;
24650;SDS011;12783;48.824;8.662;2023-05-23T12:00:16;9.13;;;6.43;;
24650;SDS011;12783;48.824;8.662;2023-05-23T12:02:44;7.03;;;5.93;;
24650;SDS011;12783;48.824;8.662;2023-05-23T12:05:15;8.90;;;6.57;;
24650;SDS011;12783;48.824;8.662;2023-05-23T12:07:43;7.75;;;6.57;;
24650;SDS011;12783;48.824;8.662;2023-05-23T12:10:13;7.95;;;6.18;;
24650;SDS011;12783;48.824;8.662;2023-05-23T12:15:16;7.00;;;5.43;;
24650;SDS011;12783;48.824;8.662;2023-05-23T12:17:43;7.20;;;5.65;;
24650;SDS011;12783;48.824;8.662;2023-05-23T12:20:11;6.90;;;5.57;;
24650;SDS011;12783;48.824;8.662;2023-05-23T12:22:40;8.80;;;5.88;;
24650;SDS011;12783;48.824;8.662;2023-05-23T12:25:08;6.78;;;5.65;;
24650;SDS011;12783;48.824;8.662;2023-05-23T12:27:38;7.75;;;5.88;;
24650;SDS011;12783;48.824;8.662;2023-05-23T12:30:12;8.32;;;5.78;;
24650;SDS011;12783;48.824;8.662;2023-05-23T12:32:42;10.27;;;4.70;;
24650;SDS011;12783;48.824;8.662;2023-05-23T12:35:11;6.47;;;4.95;;
24650;SDS011;12783;48.824;8.662;2023-05-23T12:37:42;6.35;;;4.75;;
24650;SDS011;12783;48.824;8.662;2023-05-23T12:40:14;7.32;;;5.13;;
24650;SDS011;12783;48.824;8.662;2023-05-23T12:43:07;7.07;;;5.40;;
24650;SDS011;12783;48.824;8.662;2023-05-23T12:45:35;6.53;;;5.78;;
24650;SDS011;12783;48.824;8.662;2023-05-23T12:48:02;7.85;;;5.53;;
24650;SDS011;12783;48.824;8.662;2023-05-23T12:50:31;9.23;;;5.40;;
24650;SDS011;12783;48.824;8.662;2023-05-23T12:52:58;9.75;;;5.13;;
24650;SDS011;12783;48.824;8.662;2023-05-23T12:55:25;7.70;;;5.70;;
24650;SDS011;12783;48.824;8.662;2023-05-23T12:57:53;5.65;;;5.05;;
24650;SDS011;12783;48.824;8.662;2023-05-23T13:00:20;7.95;;;5.15;;
24650;SDS011;12783;48.824;8.662;2023-05-23T13:02:47;7.15;;;5.40;;
24650;SDS011;12783;48.824;8.662;2023-05-23T13:05:15;5.60;;;4.78;;
24650;SDS011;12783;48.824;8.662;2023-05-23T13:07:42;7.18;;;4.90;;
24650;SDS011;12783;48.824;8.662;2023-05-23T13:10:09;7.43;;;5.60;;
24650;SDS011;12783;48.824;8.662;2023-05-23T13:12:36;7.15;;;4.72;;
24650;SDS011;12783;48.824;8.662;2023-05-23T13:15:04;6.55;;;5.05;;
24650;SDS011;12783;48.824;8.662;2023-05-23T13:17:31;6.45;;;4.50;;
24650;SDS011;12783;48.824;8.662;2023-05-23T13:19:59;4.85;;;4.30;;
24650;SDS011;12783;48.824;8.662;2023-05-23T13:22:26;6.35;;;4.95;;
24650;SDS011;12783;48.824;8.662;2023-05-23T13:24:54;8.27;;;4.45;;
24650;SDS011;12783;48.824;8.662;2023-05-23T13:27:22;7.43;;;4.70;;
24650;SDS011;12783;48.824;8.662;2023-05-23T13:29:49;7.82;;;4.60;;
24650;SDS011;12783;48.824;8.662;2023-05-23T13:32:16;6.60;;;4.82;;
24650;SDS011;12783;48.824;8.662;2023-05-23T13:34:43;5.82;;;4.35;;
24650;SDS011;12783;48.824;8.662;2023-05-23T13:37:10;7.78;;;4.57;;
24650;SDS011;12783;48.824;8.662;2023-05-23T13:39:36;6.38;;;4.85;;
24650;SDS011;12783;48.824;8.662;2023-05-23T13:42:03;5.68;;;4.43;;
24650;SDS011;12783;48.824;8.662;2023-05-23T13:44:31;6.40;;;4.47;;
24650;SDS011;12783;48.824;8.662;2023-05-23T13:47:08;5.32;;;4.47;;
24650;SDS011;12783;48.824;8.662;2023-05-23T13:49:40;6.07;;;5.05;;
24650;SDS011;12783;48.824;8.662;2023-05-23T13:52:08;6.55;;;5.03;;
24650;SDS011;12783;48.824;8.662;2023-05-23T13:54:35;6.15;;;4.70;;
24650;SDS011;12783;48.824;8.662;2023-05-23T13:57:02;7.47;;;5.03;;
24650;SDS011;12783;48.824;8.662;2023-05-23T13:59:30;8.00;;;5.18;;
24650;SDS011;12783;48.824;8.662;2023-05-23T14:01:57;6.85;;;5.15;;
24650;SDS011;12783;48.824;8.662;2023-05-23T14:04:25;6.95;;;5.20;;
24650;SDS011;12783;48.824;8.662;2023-05-23T14:06:52;7.70;;;5.18;;
24650;SDS011;12783;48.824;8.662;2023-05-23T14:09:19;7.57;;;4.80;;
24650;SDS011;12783;48.824;8.662;2023-05-23T14:11:48;5.22;;;4.50;;
24650;SDS011;12783;48.824;8.662;2023-05-23T14:14:17;8.90;;;4.70;;
24650;SDS011;12783;48.824;8.662;2023-05-23T14:16:44;6.63;;;4.32;;
24650;SDS011;12783;48.824;8.662;2023-05-23T14:19:11;5.00;;;4.13;;
24650;SDS011;12783;48.824;8.662;2023-05-23T14:21:38;6.28;;;4.68;;
24650;SDS011;12783;48.824;8.662;2023-05-23T14:24:09;7.25;;;4.60;;
24650;SDS011;12783;48.824;8.662;2023-05-23T14:26:36;6.30;;;5.22;;
24650;SDS011;12783;48.824;8.662;2023-05-23T14:29:03;5.63;;;4.82;;
24650;SDS011;12783;48.824;8.662;2023-05-23T14:31:30;6.00;;;4.72;;
24650;SDS011;12783;48.824;8.662;2023-05-23T14:33:57;5.22;;;3.95;;
24650;SDS011;12783;48.824;8.662;2023-05-23T14:36:27;4.90;;;4.40;;
24650;SDS011;12783;48.824;8.662;2023-05-23T14:38:54;6.43;;;4.93;;
24650;SDS011;12783;48.824;8.662;2023-05-23T14:41:21;7.70;;;5.25;;
24650;SDS011;12783;48.824;8.662;2023-05-23T14:43:48;7.93;;;5.88;;
24650;SDS011;12783;48.824;8.662;2023-05-23T14:46:16;7.13;;;5.00;;
24650;SDS011;12783;48.824;8.662;2023-05-23T14:48:43;7.00;;;5.32;;
24650;SDS011;12783;48.824;8.662;2023-05-23T14:51:10;5.32;;;4.68;;
24650;SDS011;12783;48.824;8.662;2023-05-23T14:53:55;7.78;;;5.20;;
24650;SDS011;12783;48.824;8.662;2023-05-23T14:56:22;9.00;;;5.40;;
24650;SDS011;12783;48.824;8.662;2023-05-23T14:58:49;8.18;;;6.30;;
24650;SDS011;12783;48.824;8.662;2023-05-23T15:01:16;8.25;;;6.50;;
24650;SDS011;12783;48.824;8.662;2023-05-23T15:03:43;11.40;;;7.20;;
24650;SDS011;12783;48.824;8.662;2023-05-23T15:06:11;7.90;;;6.63;;
24650;SDS011;12783;48.824;8.662;2023-05-23T15:08:38;9.98;;;6.80;;